Time;durP1;ratioP1;P1;durP2;ratioP2;P2;SDS_P1;SDS_P2;PMS_P1;PMS_P2;Temp;Humidity;BMP_temperature;BMP_pressure;BME280_temperature;BME280_humidity;BME280_pressure;Samples;Min_cycle;Max_cycle;Signal;HPM_P1;HPM_P2
2021/10/27 00:00:15;;;;;;;16.63;9.63;;;;;;;7.86;100.00;99080.53;10530625;28;20044;-66
2021/10/27 00:05:23;;;;;;;12.65;8.93;;;;;;;7.81;100.00;99081.88;10513773;28;20412;-65
2021/10/27 00:10:28;;;;;;;17.15;9.68;;;;;;;7.74;100.00;99086.03;10527350;28;20131;-65
2021/10/27 00:15:36;;;;;;;13.63;9.45;;;;;;;7.70;100.00;99088.97;10533134;28;20052;-65
2021/10/27 00:20:42;;;;;;;15.88;9.70;;;;;;;7.68;100.00;99090.06;10529525;28;20124;-65
2021/10/27 00:25:48;;;;;;;14.40;9.20;;;;;;;7.63;100.00;99100.34;10524718;28;20055;-65
2021/10/27 00:30:57;;;;;;;15.77;9.27;;;;;;;7.54;100.00;99085.84;10511762;28;20068;-65
2021/10/27 00:36:00;;;;;;;16.25;10.43;;;;;;;7.45;100.00;99087.44;10501529;28;20475;-65
2021/10/27 00:41:16;;;;;;;14.93;10.43;;;;;;;7.42;100.00;99082.31;10500913;28;20033;-65
2021/10/27 00:46:23;;;;;;;22.08;12.80;;;;;;;7.42;100.00;99087.69;10485256;28;20116;-65
2021/10/27 00:51:27;;;;;;;21.20;11.25;;;;;;;7.43;100.00;99083.19;10492058;28;20048;-63
2021/10/27 00:56:39;;;;;;;20.02;11.27;;;;;;;7.38;100.00;99089.78;10507105;28;20090;-65
2021/10/27 01:01:45;;;;;;;17.67;11.57;;;;;;;7.37;100.00;99080.03;10509374;28;20054;-63
2021/10/27 01:06:49;;;;;;;19.50;11.10;;;;;;;7.32;100.00;99090.28;10513315;28;20525;-63
2021/10/27 01:12:02;;;;;;;21.88;12.40;;;;;;;7.35;100.00;99084.66;10507391;28;20964;-63
2021/10/27 01:17:11;;;;;;;18.85;11.73;;;;;;;7.40;100.00;99084.31;10507394;28;20048;-65
2021/10/27 01:22:21;;;;;;;18.88;11.90;;;;;;;7.40;100.00;99087.81;10516815;28;20052;-64
2021/10/27 01:27:27;;;;;;;22.63;12.57;;;;;;;7.35;100.00;99084.66;10474227;28;20446;-63
2021/10/27 01:32:37;;;;;;;17.83;12.20;;;;;;;7.37;100.00;99074.66;10503430;28;20127;-63
2021/10/27 01:37:51;;;;;;;20.08;11.68;;;;;;;7.41;100.00;99080.63;10508366;28;20166;-64
2021/10/27 01:42:55;;;;;;;16.17;11.48;;;;;;;7.44;100.00;99084.91;10485533;28;20071;-63
2021/10/27 01:48:01;;;;;;;20.23;11.65;;;;;;;7.49;100.00;99083.56;10489439;28;20093;-65
2021/10/27 01:53:15;;;;;;;15.25;11.05;;;;;;;7.56;100.00;99083.91;10493660;28;20560;-63
2021/10/27 01:58:24;;;;;;;18.63;11.57;;;;;;;7.48;100.00;99076.47;10496739;28;20054;-65
2021/10/27 02:03:28;;;;;;;20.98;11.75;;;;;;;7.46;100.00;99069.56;10479785;28;20083;-65
2021/10/27 02:08:37;;;;;;;20.45;11.50;;;;;;;7.36;100.00;99070.28;10503131;28;20549;-65
2021/10/27 02:13:41;;;;;;;20.25;12.05;;;;;;;7.26;100.00;99069.31;10499563;28;20404;-65
2021/10/27 02:18:46;;;;;;;17.42;12.07;;;;;;;7.21;100.00;99071.53;10514415;28;20096;-65
2021/10/27 02:23:54;;;;;;;18.83;11.90;;;;;;;7.19;100.00;99078.84;10482160;28;20140;-65
2021/10/27 02:29:03;;;;;;;19.52;12.05;;;;;;;7.19;100.00;99079.69;10490265;28;20144;-63
2021/10/27 02:34:08;;;;;;;21.15;11.55;;;;;;;7.17;100.00;99083.47;10481631;28;20127;-63
2021/10/27 02:39:13;;;;;;;20.25;11.57;;;;;;;7.17;100.00;99075.44;10479938;28;20037;-63
2021/10/27 02:44:19;;;;;;;16.08;11.50;;;;;;;7.22;100.00;99082.13;10467232;28;20083;-64
2021/10/27 02:49:24;;;;;;;21.08;12.18;;;;;;;7.23;100.00;99080.31;10481671;28;20043;-63
2021/10/27 02:54:33;;;;;;;20.30;13.15;;;;;;;7.20;100.00;99075.19;10481309;28;20050;-65
2021/10/27 02:59:45;;;;;;;17.50;11.77;;;;;;;7.19;100.00;99073.47;10477386;28;20087;-65
2021/10/27 03:04:48;;;;;;;20.48;11.98;;;;;;;7.27;100.00;99070.19;10435915;28;20121;-65
2021/10/27 03:09:57;;;;;;;17.67;11.07;;;;;;;7.27;100.00;99062.16;10415004;28;20049;-64
2021/10/27 03:15:00;;;;;;;19.73;12.75;;;;;;;7.26;100.00;99055.91;10414903;28;20137;-63
2021/10/27 03:20:04;;;;;;;19.20;12.60;;;;;;;7.21;100.00;99060.81;10410594;28;20117;-63
2021/10/27 03:25:10;;;;;;;22.05;12.95;;;;;;;7.20;100.00;99057.28;10407015;28;20129;-63
2021/10/27 03:30:13;;;;;;;24.13;13.10;;;;;;;7.24;100.00;99082.00;10416134;28;20551;-63
2021/10/27 03:35:19;;;;;;;18.17;11.80;;;;;;;7.22;100.00;99089.31;10438457;28;20068;-65
2021/10/27 03:40:24;;;;;;;20.08;12.27;;;;;;;7.30;100.00;99104.75;10418199;28;20135;-64
2021/10/27 03:45:29;;;;;;;15.63;11.60;;;;;;;7.29;100.00;99103.94;10440992;28;20148;-63
2021/10/27 03:50:32;;;;;;;19.38;11.80;;;;;;;7.32;100.00;99110.84;10442173;28;20087;-65
2021/10/27 03:55:58;;;;;;;18.20;11.95;;;;;;;7.31;100.00;99104.66;10439281;28;20040;-65
2021/10/27 04:01:05;;;;;;;18.85;10.80;;;;;;;7.29;100.00;99093.19;10413656;28;20490;-63
2021/10/27 04:06:09;;;;;;;13.15;10.15;;;;;;;7.38;100.00;99095.13;10441111;28;20061;-63
2021/10/27 04:11:14;;;;;;;15.25;10.50;;;;;;;7.40;100.00;99095.03;10439421;28;20041;-63
2021/10/27 04:16:29;;;;;;;17.42;10.25;;;;;;;7.42;100.00;99102.94;10440460;28;20045;-62
2021/10/27 04:21:41;;;;;;;14.93;8.63;;;;;;;7.50;100.00;99100.47;10438263;28;20047;-64
2021/10/27 04:26:48;;;;;;;15.07;7.80;;;;;;;7.52;100.00;99104.75;10440233;28;20059;-63
2021/10/27 04:31:52;;;;;;;10.35;7.43;;;;;;;7.57;100.00;99120.47;10443222;28;21007;-64
2021/10/27 04:37:11;;;;;;;13.07;7.28;;;;;;;7.60;100.00;99111.31;10439753;28;20059;-65
2021/10/27 04:42:20;;;;;;;9.68;6.70;;;;;;;7.65;100.00;99114.44;10446486;28;20045;-63
2021/10/27 04:47:23;;;;;;;10.20;6.57;;;;;;;7.67;100.00;99121.41;10439950;28;20079;-62
2021/10/27 04:52:33;;;;;;;9.48;6.00;;;;;;;7.71;100.00;99103.25;10426695;28;20049;-63
2021/10/27 04:57:41;;;;;;;9.95;5.78;;;;;;;7.70;100.00;99113.09;10443222;28;20376;-66
2021/10/27 05:02:44;;;;;;;10.27;6.43;;;;;;;7.68;100.00;99120.44;10444290;28;20060;-66
2021/10/27 05:07:52;;;;;;;12.82;6.53;;;;;;;7.65;100.00;99120.69;10415821;28;20081;-64
2021/10/27 05:13:09;;;;;;;9.15;5.85;;;;;;;7.68;100.00;99132.97;10445749;28;20095;-63
2021/10/27 05:18:12;;;;;;;10.45;6.00;;;;;;;7.66;100.00;99133.13;10445734;28;20106;-65
2021/10/27 05:23:22;;;;;;;11.52;6.03;;;;;;;7.73;100.00;99136.16;10442616;28;20899;-65
2021/10/27 05:28:32;;;;;;;8.65;5.63;;;;;;;7.81;100.00;99143.59;10434131;28;20171;-64
2021/10/27 05:33:50;;;;;;;10.60;5.50;;;;;;;7.88;100.00;99131.34;10440730;28;20041;-64
2021/10/27 05:39:00;;;;;;;9.27;5.07;;;;;;;7.92;100.00;99131.94;10440324;28;20053;-64
2021/10/27 05:44:07;;;;;;;11.23;5.40;;;;;;;7.96;100.00;99136.94;10445446;28;20037;-66
2021/10/27 05:49:19;;;;;;;11.30;5.90;;;;;;;7.98;100.00;99137.66;10441323;28;20045;-63
2021/10/27 05:59:51;;;;;;;11.45;5.80;;;;;;;8.01;100.00;99148.16;10426548;28;20049;-63
2021/10/27 06:05:08;;;;;;;11.80;5.93;;;;;;;8.02;100.00;99144.50;10444422;28;20057;-64
2021/10/27 06:10:13;;;;;;;9.27;5.65;;;;;;;8.07;100.00;99153.97;10427347;28;20816;-63
2021/10/27 06:15:24;;;;;;;10.63;5.78;;;;;;;8.06;100.00;99142.41;10446464;28;20053;-65
2021/10/27 06:20:32;;;;;;;9.60;5.72;;;;;;;8.05;100.00;99153.28;10444936;28;20147;-65
2021/10/27 06:25:38;;;;;;;6.13;4.30;;;;;;;8.09;100.00;99149.34;10419447;28;20060;-64
2021/10/27 06:30:51;;;;;;;9.90;3.75;;;;;;;8.22;100.00;99160.75;10425100;28;20052;-65
2021/10/27 06:36:09;;;;;;;7.15;3.75;;;;;;;8.30;100.00;99166.31;10420221;28;20048;-68
2021/10/27 06:46:41;;;;;;;7.38;4.20;;;;;;;8.43;100.00;99174.22;10438519;28;20045;-66
2021/10/27 06:51:51;;;;;;;7.20;4.00;;;;;;;8.45;100.00;99184.81;10422198;28;20044;-61
2021/10/27 06:57:00;;;;;;;7.85;4.22;;;;;;;8.51;100.00;99187.03;10442671;28;20044;-62
2021/10/27 07:02:31;;;;;;;7.30;3.67;;;;;;;8.54;100.00;99180.56;10433458;28;20037;-63
2021/10/27 07:18:49;;;;;;;6.60;3.03;;;;;;;8.78;100.00;99215.22;10440102;28;20053;-65
2021/10/27 07:23:52;;;;;;;8.90;3.55;;;;;;;8.87;100.00;99222.53;10439652;28;20040;-65
2021/10/27 07:28:56;;;;;;;5.40;3.00;;;;;;;8.98;100.00;99220.75;10410504;28;20053;-65
2021/10/27 07:34:06;;;;;;;7.90;3.22;;;;;;;9.05;100.00;99235.34;10410369;28;20071;-65
2021/10/27 07:44:30;;;;;;;5.70;3.20;;;;;;;9.23;100.00;99246.38;10413803;28;20572;-65
2021/10/27 07:49:34;;;;;;;6.38;3.60;;;;;;;9.30;100.00;99246.69;10433242;28;20045;-65
2021/10/27 07:54:38;;;;;;;6.82;4.18;;;;;;;9.28;100.00;99248.66;10431983;28;20037;-65
2021/10/27 07:59:41;;;;;;;5.95;3.60;;;;;;;9.29;100.00;99251.19;10410766;28;20499;-65
2021/10/27 08:04:45;;;;;;;6.15;3.70;;;;;;;9.31;100.00;99254.63;10429273;28;20128;-65
2021/10/27 08:09:48;;;;;;;7.55;3.35;;;;;;;9.39;100.00;99257.50;10434502;28;20163;-64
2021/10/27 08:14:51;;;;;;;7.43;3.65;;;;;;;9.52;100.00;99267.19;10439622;28;20037;-65
2021/10/27 08:19:57;;;;;;;6.15;3.30;;;;;;;9.55;100.00;99261.53;10438986;28;20049;-65
2021/10/27 08:25:04;;;;;;;6.28;3.40;;;;;;;9.61;100.00;99269.09;10415144;28;20150;-64
2021/10/27 08:30:11;;;;;;;11.10;3.80;;;;;;;9.69;100.00;99271.09;10416619;28;20053;-64
2021/10/27 08:35:15;;;;;;;11.68;3.50;;;;;;;9.74;100.00;99266.16;10409502;28;20037;-64
2021/10/27 08:40:20;;;;;;;6.70;3.40;;;;;;;9.86;100.00;99257.00;10270377;28;20053;-64
2021/10/27 08:45:24;;;;;;;7.18;3.28;;;;;;;9.87;100.00;99257.88;10382657;28;20049;-65
2021/10/27 08:50:35;;;;;;;10.93;3.20;;;;;;;9.93;100.00;99254.63;10385772;28;20127;-66
2021/10/27 08:55:40;;;;;;;4.53;2.72;;;;;;;10.00;100.00;99252.22;10392410;28;20069;-64
2021/10/27 09:00:48;;;;;;;5.72;3.05;;;;;;;10.09;100.00;99254.09;10392635;28;20700;-69
2021/10/27 09:05:59;;;;;;;4.70;2.95;;;;;;;10.15;100.00;99256.25;10374486;28;20049;-66
2021/10/27 09:16:59;;;;;;;7.32;3.25;;;;;;;10.29;100.00;99248.78;10396245;28;20068;-68
2021/10/27 09:38:36;;;;;;;4.67;2.90;;;;;;;10.51;100.00;99238.75;10438022;28;19925;-66
2021/10/27 10:05:18;;;;;;;6.22;4.22;;;;;;;11.00;100.00;99236.88;10431078;28;20071;-67
2021/10/27 10:10:22;;;;;;;6.28;3.80;;;;;;;11.03;100.00;99227.66;10433200;28;20627;-67
2021/10/27 10:15:27;;;;;;;4.93;3.30;;;;;;;11.07;100.00;99229.06;10430985;28;20044;-64
2021/10/27 10:20:31;;;;;;;5.18;3.38;;;;;;;11.13;100.00;99230.31;10432637;28;20037;-67
2021/10/27 10:25:49;;;;;;;5.45;3.20;;;;;;;11.21;100.00;99234.00;10415925;28;20198;-67
2021/10/27 10:30:56;;;;;;;5.32;3.25;;;;;;;11.30;100.00;99226.91;10410668;28;20045;-66
2021/10/27 10:36:02;;;;;;;5.28;3.13;;;;;;;11.40;100.00;99232.28;10404361;28;20052;-68
2021/10/27 10:41:26;;;;;;;5.65;3.00;;;;;;;11.47;100.00;99221.72;10421068;28;20127;-68
2021/10/27 10:58:06;;;;;;;6.72;3.05;;;;;;;11.91;100.00;99221.97;10370175;28;20048;-70
2021/10/27 11:03:35;;;;;;;4.28;2.90;;;;;;;12.05;100.00;99214.41;10412923;28;20055;-69
2021/10/27 11:25:17;;;;;;;3.70;2.60;;;;;;;11.99;100.00;99205.88;10425743;28;20038;-68
2021/10/27 11:41:31;;;;;;;4.95;2.40;;;;;;;12.21;100.00;99186.72;10352402;28;20075;-67
2021/10/27 11:46:46;;;;;;;4.38;2.33;;;;;;;12.26;100.00;99177.16;10431895;28;20052;-67
2021/10/27 11:51:56;;;;;;;16.90;2.58;;;;;;;12.38;100.00;99182.31;10449421;28;20044;-67
2021/10/27 11:57:01;;;;;;;6.85;2.30;;;;;;;12.47;100.00;99178.69;10450301;28;20437;-67
2021/10/27 12:02:09;;;;;;;5.10;2.40;;;;;;;12.55;100.00;99177.91;10450274;28;20047;-67
2021/10/27 12:07:17;;;;;;;3.28;2.50;;;;;;;12.56;100.00;99180.44;10451159;28;20057;-67
2021/10/27 12:12:47;;;;;;;7.88;2.47;;;;;;;12.54;100.00;99178.91;10451619;28;20115;-67
2021/10/27 12:18:07;;;;;;;6.18;2.45;;;;;;;12.52;100.00;99179.09;10456693;28;20044;-67
2021/10/27 12:23:24;;;;;;;5.03;2.20;;;;;;;12.53;100.00;99172.66;10448602;28;20045;-67
2021/10/27 12:28:31;;;;;;;8.75;2.67;;;;;;;12.58;100.00;99167.63;10438799;28;20060;-67
2021/10/27 12:33:40;;;;;;;3.13;2.00;;;;;;;12.58;100.00;99162.22;10408185;28;20731;-67
2021/10/27 12:39:06;;;;;;;2.53;1.98;;;;;;;12.57;100.00;99165.94;10421516;28;20414;-68
2021/10/27 12:44:24;;;;;;;4.72;2.00;;;;;;;12.63;100.00;99173.44;10437845;28;20124;-64
2021/10/27 12:49:29;;;;;;;4.88;1.98;;;;;;;12.62;100.00;99177.16;10411432;28;20056;-69
2021/10/27 12:54:31;;;;;;;7.25;2.10;;;;;;;12.62;100.00;99173.56;10443617;28;20534;-67
2021/10/27 12:59:35;;;;;;;4.28;2.03;;;;;;;12.61;100.00;99172.75;10433028;28;20087;-66
2021/10/27 13:04:46;;;;;;;4.30;2.10;;;;;;;12.55;100.00;99176.03;10422224;28;20407;-65
2021/10/27 13:10:07;;;;;;;2.17;1.95;;;;;;;12.49;100.00;99169.41;10425705;28;20041;-65
2021/10/27 13:31:27;;;;;;;4.82;2.55;;;;;;;12.30;100.00;99159.59;10428559;28;20151;-67
2021/10/27 13:36:32;;;;;;;4.72;2.40;;;;;;;12.27;100.00;99159.94;10432372;28;20051;-66
2021/10/27 13:41:36;;;;;;;4.80;2.10;;;;;;;12.29;100.00;99157.91;10425658;28;20044;-68
2021/10/27 13:47:09;;;;;;;3.17;2.33;;;;;;;12.28;100.00;99148.13;10428386;28;20049;-66
2021/10/27 14:08:22;;;;;;;7.13;2.50;;;;;;;12.29;100.00;99146.25;10431001;28;20045;-65
2021/10/27 14:13:35;;;;;;;7.03;3.10;;;;;;;12.29;100.00;99152.50;10432008;28;20451;-66
2021/10/27 14:40:35;;;;;;;7.13;2.95;;;;;;;12.15;100.00;99134.16;10411844;28;20052;-65
2021/10/27 15:23:24;;;;;;;10.52;5.20;;;;;;;11.86;100.00;99116.25;10435272;28;19963;-65
2021/10/27 15:28:49;;;;;;;8.15;4.30;;;;;;;11.82;100.00;99112.16;10430014;28;20063;-65
2021/10/27 15:34:20;;;;;;;5.53;3.60;;;;;;;11.78;100.00;99121.56;10424433;28;20041;-66
2021/10/27 15:45:00;;;;;;;5.18;3.00;;;;;;;11.71;100.00;99122.16;10410010;28;20079;-69
2021/10/27 15:55:24;;;;;;;5.47;3.03;;;;;;;11.59;100.00;99127.94;10428786;28;20053;-67
2021/10/27 16:00:29;;;;;;;7.45;4.78;;;;;;;11.60;100.00;99130.47;10410429;28;20055;-67
2021/10/27 16:05:32;;;;;;;5.68;4.18;;;;;;;11.55;100.00;99130.09;10405519;28;20053;-66
2021/10/27 16:10:36;;;;;;;4.88;3.33;;;;;;;11.51;100.00;99128.69;10427075;28;20060;-66
2021/10/27 16:15:42;;;;;;;5.80;2.90;;;;;;;11.47;100.00;99132.66;10419705;28;20040;-68
2021/10/27 16:20:48;;;;;;;7.53;3.10;;;;;;;11.44;100.00;99135.69;10406149;28;20168;-65
2021/10/27 16:25:53;;;;;;;4.55;2.90;;;;;;;11.43;100.00;99139.38;10407810;28;20053;-65
2021/10/27 16:30:58;;;;;;;4.65;3.00;;;;;;;11.38;100.00;99142.53;10427752;28;20033;-68
2021/10/27 16:36:01;;;;;;;3.67;3.05;;;;;;;11.37;100.00;99141.66;10412262;28;20045;-67
2021/10/27 16:41:04;;;;;;;4.95;3.20;;;;;;;11.34;100.00;99147.38;10439788;28;20049;-70
2021/10/27 16:46:10;;;;;;;4.97;3.20;;;;;;;11.31;100.00;99144.97;10459458;28;20105;-65
2021/10/27 16:51:13;;;;;;;4.03;3.38;;;;;;;11.32;100.00;99154.75;10416419;28;20044;-67
2021/10/27 16:56:16;;;;;;;6.50;3.50;;;;;;;11.30;100.00;99147.78;10434730;28;20045;-67
2021/10/27 17:01:21;;;;;;;4.50;3.88;;;;;;;11.31;100.00;99150.38;10431241;28;20159;-65
2021/10/27 17:06:25;;;;;;;5.95;3.63;;;;;;;11.28;100.00;99150.66;10436929;28;20041;-65
2021/10/27 17:11:28;;;;;;;5.80;4.10;;;;;;;11.26;100.00;99155.34;10434648;28;20133;-70
2021/10/27 17:16:34;;;;;;;6.80;4.75;;;;;;;11.26;100.00;99155.34;10420345;28;20159;-65
2021/10/27 17:21:38;;;;;;;6.47;5.35;;;;;;;11.21;100.00;99153.09;10436352;28;20091;-67
2021/10/27 17:26:43;;;;;;;6.47;5.50;;;;;;;11.21;100.00;99163.03;10436816;28;20049;-70
2021/10/27 17:31:48;;;;;;;8.88;6.38;;;;;;;11.19;100.00;99154.25;10417673;28;20815;-67
2021/10/27 17:36:53;;;;;;;9.30;7.20;;;;;;;11.18;100.00;99163.31;10431809;28;20037;-70
2021/10/27 17:41:56;;;;;;;14.10;7.82;;;;;;;11.15;100.00;99159.09;10416821;28;20057;-65
2021/10/27 17:47:04;;;;;;;9.23;6.85;;;;;;;11.14;100.00;99156.53;10433042;28;20063;-67
2021/10/27 17:52:14;;;;;;;8.40;6.20;;;;;;;11.09;100.00;99157.81;10433628;28;20047;-65
2021/10/27 17:57:58;;;;;;;7.32;5.45;;;;;;;11.08;100.00;99157.94;10417238;28;20071;-65
2021/10/27 18:03:04;;;;;;;7.88;5.07;;;;;;;11.06;100.00;99154.53;10430074;28;20383;-65
2021/10/27 18:08:09;;;;;;;7.43;4.50;;;;;;;11.03;100.00;99161.09;10417222;28;20049;-64
2021/10/27 18:13:33;;;;;;;7.25;4.57;;;;;;;11.02;100.00;99151.31;10429980;28;20051;-67
2021/10/27 18:18:44;;;;;;;4.75;3.85;;;;;;;11.03;100.00;99155.69;10431455;28;20036;-63
2021/10/27 18:24:02;;;;;;;;;;;;;;;11.00;100.00;99158.69;10426683;28;20041;-61
2021/10/27 18:39:59;;;;;;;8.52;5.00;;;;;;;10.85;100.00;99125.09;10437922;28;20191;-64
2021/10/27 18:45:03;;;;;;;7.75;4.93;;;;;;;10.79;100.00;99124.69;10435742;28;20044;-62
2021/10/27 18:50:09;;;;;;;5.47;4.97;;;;;;;10.73;100.00;99121.72;10422217;28;20056;-63
2021/10/27 18:55:18;;;;;;;7.40;4.80;;;;;;;10.58;100.00;99118.63;10448058;28;20520;-63
2021/10/27 19:00:29;;;;;;;6.13;5.10;;;;;;;10.44;100.00;99118.06;10436988;28;20040;-63
2021/10/27 19:11:13;;;;;;;10.93;7.63;;;;;;;10.28;100.00;99123.16;10294344;28;20105;-66
2021/10/27 19:16:18;;;;;;;9.02;7.10;;;;;;;10.20;100.00;99115.81;10396255;28;20061;-63
2021/10/27 19:21:23;;;;;;;9.15;6.47;;;;;;;10.12;100.00;99121.88;10421508;28;20107;-63
2021/10/27 19:26:32;;;;;;;9.55;7.47;;;;;;;10.06;100.00;99124.28;10410342;28;20056;-62
2021/10/27 19:31:52;;;;;;;8.45;7.32;;;;;;;10.02;100.00;99126.41;10429514;28;20041;-63
2021/10/27 20:09:33;;;;;;;9.68;8.10;;;;;;;9.46;100.00;99107.19;10431361;28;20052;-64
2021/10/27 20:25:50;;;;;;;12.25;9.02;;;;;;;9.31;100.00;99114.78;10432709;28;20041;-62
2021/10/27 20:48:32;;;;;;;9.60;8.27;;;;;;;9.26;100.00;99111.66;10433597;28;20048;-63
2021/10/27 20:53:09;;;;;;;7.70;6.78;;;;;;;9.09;100.00;99097.03;10322540;28;20116;-65
2021/10/27 20:58:24;;;;;;;7.18;6.47;;;;;;;9.06;100.00;99095.44;10418972;28;20056;-65
2021/10/27 21:03:46;;;;;;;8.90;6.65;;;;;;;9.05;100.00;99098.28;10433496;28;20071;-66
2021/10/27 21:14:27;;;;;;;7.95;6.43;;;;;;;9.02;100.00;99104.78;10408955;28;20171;-66
2021/10/27 21:19:30;;;;;;;7.82;6.28;;;;;;;8.99;100.00;99098.81;10430774;28;20048;-65
2021/10/27 21:24:34;;;;;;;8.52;6.40;;;;;;;8.97;100.00;99100.78;10445853;28;20045;-66
2021/10/27 21:29:42;;;;;;;8.80;7.05;;;;;;;8.92;100.00;99093.97;10430539;28;20119;-65
2021/10/27 21:45:28;;;;;;;;;;;;;;;8.81;100.00;99094.06;10431442;28;20032;-65
2021/10/27 21:50:34;;;;;;;9.02;6.45;;;;;;;8.76;100.00;99086.41;10417529;28;19931;-65
2021/10/27 21:55:40;;;;;;;8.35;6.22;;;;;;;8.72;100.00;99078.75;10428930;28;20037;-65
2021/10/27 22:00:57;;;;;;;7.85;6.38;;;;;;;8.66;100.00;99072.06;10432364;28;20175;-65
2021/10/27 22:06:01;;;;;;;8.75;6.05;;;;;;;8.57;100.00;99071.03;10435448;28;20057;-65
2021/10/27 22:11:05;;;;;;;8.07;6.13;;;;;;;8.42;100.00;99059.75;10430445;28;20045;-65
2021/10/27 22:16:10;;;;;;;6.60;5.65;;;;;;;8.36;100.00;99060.25;10431884;28;20041;-64
2021/10/27 22:21:15;;;;;;;7.75;5.57;;;;;;;8.29;100.00;99065.28;10437280;28;20384;-65
2021/10/27 22:26:18;;;;;;;7.00;5.65;;;;;;;8.23;100.00;99051.56;10436375;28;20049;-65
2021/10/27 22:31:23;;;;;;;7.30;5.35;;;;;;;8.23;100.00;99049.72;10456069;28;20049;-65
2021/10/27 22:36:26;;;;;;;6.32;5.70;;;;;;;8.20;100.00;99043.78;10433053;28;20808;-65
2021/10/27 22:41:29;;;;;;;8.65;6.07;;;;;;;8.16;100.00;99043.19;10417967;28;20048;-64
2021/10/27 22:46:33;;;;;;;8.30;5.80;;;;;;;8.14;100.00;99040.59;10440257;28;20056;-64
2021/10/27 22:51:36;;;;;;;7.88;6.72;;;;;;;8.13;100.00;99043.44;10419602;28;20053;-65
2021/10/27 22:56:40;;;;;;;7.90;6.65;;;;;;;8.12;100.00;99044.41;10412300;28;20045;-66
2021/10/27 23:01:46;;;;;;;7.47;6.22;;;;;;;8.13;100.00;99038.06;10437455;28;20041;-64
2021/10/27 23:06:52;;;;;;;8.15;6.45;;;;;;;8.12;100.00;99041.72;10431539;28;20036;-65
2021/10/27 23:44:06;;;;;;;9.90;7.88;;;;;;;8.04;100.00;99041.53;10430845;28;20495;-65
2021/10/27 23:49:13;;;;;;;10.07;8.35;;;;;;;8.01;100.00;99046.19;10429704;28;20047;-65
2021/10/27 23:54:20;;;;;;;11.07;8.50;;;;;;;7.97;100.00;99036.69;10438442;28;20486;-64
